Terminal Aerodrome Forecast
Issued by NWS Upton, NY

Home | Current Version | Previous Version | Text Only | Print | Product List | Glossary On
Versions: 1 2 3 4 5 6 7 8 9 10 11 12 13 14 15 16 17 18 19 20 21 22 23 24 25 26 27 28 29
000
FTUS41 KOKX 190056 AAA
TAFEWR
TAF AMD
KEWR 190056Z 1901/2006 33012G25KT P6SM SKC
     FM190300 36011KT P6SM SKC
     FM191300 07007KT P6SM FEW250
     FM191700 13009KT P6SM BKN250
     FM200200 10011KT P6SM BKN120=

USA.gov is the U.S. government's official web portal to all federal, state and local government web resources and services.